This is the latest recevied weather packets stored in our database for station/object W2CJS. If no packets are shown the sender has not sent any weather packets the latest 10 day(s).
| Time | Temp. | Humidity | Pressure | Rain* | Wind** | Luminosity | Snow |
|---|---|---|---|---|---|---|---|
| 1778044824 | 8.89° C | 92% | 1008.7 hPa | 0.25 mm | - | - | - |
| 1778043603 | 8.89° C | 91% | 1008.8 hPa | 0.25 mm | - | - | - |
| 1778041824 | 9.44° C | 91% | 1008.9 hPa | 0.51 mm | - | - | - |
| 1778041203 | 10° C | 92% | 1008.5 hPa | 0.25 mm | - | - | - |
| 1778035803 | 10.56° C | 89% | 1008.5 hPa | 0.51 mm | - | - | - |
| 1778034003 | 11.11° C | 88% | 1008.5 hPa | 1.02 mm | - | - | - |
| 1778031603 | 12.22° C | 79% | 1008.3 hPa | 0.51 mm | - | - | - |
| 1778028003 | 14.44° C | 72% | 1007.3 hPa | 0 mm | - | - | - |
| 1778026203 | 15.56° C | 73% | 1006.1 hPa | 0 mm | - | - | - |
| 1778015403 | 17.22° C | 70% | 1004.7 hPa | 0 mm | - | - | - |
| 1778014803 | 17.22° C | 71% | 1004.6 hPa | 0 mm | - | - | - |
| 1778013603 | 17.22° C | 71% | 1004.4 hPa | 0 mm | - | - | - |
| 1778012403 | 16.67° C | 72% | 1004.3 hPa | 0 mm | - | - | - |
| 1778008803 | 16.67° C | 71% | 1004.4 hPa | 0 mm | - | - | - |
| 1778008203 | 16.67° C | 69% | 1004 hPa | 0 mm | - | - | - |
| 1778007624 | 17.22° C | 66% | 1004.1 hPa | 0 mm | - | - | - |
| 1778004003 | 20° C | 58% | 1003 hPa | 0 mm | - | - | - |
| 1778003403 | 20.56° C | 55% | 1002.9 hPa | 0 mm | - | - | - |
| 1778002803 | 20.56° C | 53% | 1003 hPa | 0 mm | - | - | - |
| 1778001603 | 21.11° C | 53% | 1002.7 hPa | 0 mm | - | - | - |
| 1777995603 | 20.56° C | 55% | 1003.2 hPa | 0.25 mm | - | - | - |
| 1777993803 | 21.11° C | 54% | 1003.1 hPa | 0.25 mm | - | - | - |
| 1777991403 | 20° C | 58% | 1003.4 hPa | 0 mm | - | - | - |
| 1777987203 | 16.67° C | 69% | 1003.9 hPa | 0 mm | - | - | - |
| 1777985403 | 15° C | 74% | 1004 hPa | 0 mm | - | - | - |
* Rain latest hour (hover to see other rain measurements)
** Current wind speed in m/s (hover to see current wind gust speed)